Time;durP1;ratioP1;P1;durP2;ratioP2;P2;SDS_P1;SDS_P2;PMS_P1;PMS_P2;Temp;Humidity;BMP_temperature;BMP_pressure;BME280_temperature;BME280_humidity;BME280_pressure;Samples;Min_cycle;Max_cycle;Signal;HPM_P1;HPM_P2
2023/02/08 00:00:30;;;;;;;23.45;14.93;;;3.20;99.90;;;;;;4901601;29;20036;-91
2023/02/08 00:02:55;;;;;;;24.27;15.38;;;3.70;99.90;;;;;;4901359;29;20028;-90
2023/02/08 00:05:21;;;;;;;22.50;13.80;;;3.80;99.90;;;;;;4900805;29;20032;-89
2023/02/08 00:07:46;;;;;;;22.20;13.75;;;3.10;99.90;;;;;;4901230;29;20029;-90
2023/02/08 01:15:08;;;;;;;20.83;12.20;;;2.90;99.90;;;;;;4899710;29;20064;-91
2023/02/08 01:17:33;;;;;;;19.58;12.15;;;2.60;99.90;;;;;;4899770;29;20117;-90
2023/02/08 01:19:59;;;;;;;17.75;12.00;;;3.00;99.90;;;;;;4899996;29;20036;-90
2023/02/08 01:22:27;;;;;;;21.10;12.80;;;3.70;99.90;;;;;;4899564;29;20029;-90
2023/02/08 01:24:52;;;;;;;21.58;13.27;;;3.40;99.90;;;;;;4900093;29;20134;-91
2023/02/08 01:27:18;;;;;;;19.95;12.85;;;3.00;99.90;;;;;;4899381;29;20037;-90
2023/02/08 01:29:43;;;;;;;16.48;11.90;;;3.30;99.90;;;;;;4899508;29;20464;-90
2023/02/08 01:32:09;;;;;;;17.17;12.10;;;3.00;99.90;;;;;;4899424;29;20036;-89
2023/02/08 01:34:35;;;;;;;17.15;12.07;;;3.00;99.90;;;;;;4899744;29;20380;-90
2023/02/08 01:37:00;;;;;;;18.88;12.32;;;3.80;99.90;;;;;;4915433;29;20068;-90
2023/02/08 01:39:40;;;;;;;20.38;13.32;;;3.00;99.90;;;;;;4902663;29;20066;-90
2023/02/08 01:42:08;;;;;;;16.17;12.25;;;3.10;99.90;;;;;;4904334;29;20123;-90
2023/02/08 01:45:11;;;;;;;16.25;12.00;;;3.20;99.90;;;;;;4899713;29;20036;-89
2023/02/08 01:47:37;;;;;;;20.10;13.32;;;3.10;99.90;;;;;;4899091;29;20072;-91
2023/02/08 01:50:03;;;;;;;20.10;11.45;;;3.80;99.90;;;;;;4899063;29;20059;-91
2023/02/08 01:52:29;;;;;;;16.38;12.20;;;3.10;99.90;;;;;;4899507;29;20040;-90
2023/02/08 01:55:23;;;;;;;16.90;11.52;;;3.10;99.90;;;;;;4899124;29;20056;-90
2023/02/08 01:57:53;;;;;;;24.15;12.55;;;3.10;99.90;;;;;;4896110;29;20064;-91
2023/02/08 02:00:21;;;;;;;19.70;13.02;;;3.60;99.90;;;;;;4899028;29;20029;-91
2023/02/08 02:02:48;;;;;;;15.00;12.13;;;3.10;99.90;;;;;;4899164;29;20052;-91
2023/02/08 02:05:19;;;;;;;17.05;11.38;;;3.10;99.90;;;;;;4899069;29;20035;-91
2023/02/08 02:07:45;;;;;;;19.80;12.07;;;3.00;99.90;;;;;;4898643;29;20037;-90
2023/02/08 02:10:20;;;;;;;16.05;10.45;;;4.10;99.90;;;;;;4898641;29;20083;-90
2023/02/08 02:12:46;;;;;;;14.50;12.05;;;3.50;99.90;;;;;;4898876;29;20111;-91
2023/02/08 02:15:12;;;;;;;17.45;11.98;;;3.70;99.90;;;;;;4898557;29;20020;-90
2023/02/08 02:17:38;;;;;;;16.08;12.50;;;3.10;99.90;;;;;;4898185;29;20059;-90
2023/02/08 02:20:09;;;;;;;17.85;11.77;;;3.10;99.90;;;;;;4897483;29;20025;-90
2023/02/08 02:22:53;;;;;;;22.55;12.90;;;3.10;99.90;;;;;;4898569;29;20116;-89
2023/02/08 02:26:02;;;;;;;24.80;11.63;;;3.10;99.90;;;;;;4898051;29;20031;-90
2023/02/08 02:28:39;;;;;;;17.45;12.18;;;3.10;99.90;;;;;;4847741;29;20052;-90
2023/02/08 02:31:56;;;;;;;17.50;12.10;;;3.00;99.90;;;;;;4915075;29;20019;-91
2023/02/08 02:34:48;;;;;;;14.75;11.60;;;3.00;99.90;;;;;;4874691;29;20048;-89
2023/02/08 02:37:26;;;;;;;16.77;11.35;;;3.00;99.90;;;;;;4890324;29;20041;-88
2023/02/08 02:40:18;;;;;;;23.95;12.85;;;3.50;99.90;;;;;;4898555;29;20029;-87
2023/02/08 02:45:44;;;;;;;21.67;11.30;;;4.10;99.90;;;;;;4901548;29;20035;-90
2023/02/08 02:48:22;;;;;;;18.23;11.55;;;3.00;99.90;;;;;;4898649;29;20387;-89
2023/02/08 02:50:52;;;;;;;12.60;11.10;;;3.70;99.90;;;;;;4898740;29;20021;-91
2023/02/08 02:53:36;;;;;;;15.20;11.63;;;3.70;99.90;;;;;;4898521;29;20029;-89
2023/02/08 02:56:08;;;;;;;20.50;11.65;;;3.00;99.90;;;;;;4898341;29;20119;-90
2023/02/08 02:58:37;;;;;;;14.98;11.65;;;2.90;99.90;;;;;;4898254;29;20028;-90
2023/02/08 03:01:03;;;;;;;16.55;11.40;;;3.30;99.90;;;;;;4898030;29;20478;-92
2023/02/08 03:03:32;;;;;;;15.85;10.68;;;2.90;99.90;;;;;;4898445;29;20120;-87
2023/02/08 03:06:13;;;;;;;15.25;11.52;;;2.60;99.90;;;;;;4898296;29;20365;-91
2023/02/08 03:09:03;;;;;;;;;;;2.90;99.90;;;;;;4898885;29;20145;-87
2023/02/08 03:11:32;;;;;;;19.60;11.95;;;2.80;99.90;;;;;;4898503;29;19955;-90
2023/02/08 03:14:28;;;;;;;20.05;11.40;;;2.70;99.90;;;;;;4898057;29;20028;-90
2023/02/08 03:17:22;;;;;;;17.98;11.18;;;2.80;99.90;;;;;;4897963;29;20067;-88
2023/02/08 03:20:12;;;;;;;19.02;11.57;;;2.70;99.90;;;;;;4897872;29;20079;-89
2023/02/08 03:23:13;;;;;;;22.27;11.32;;;2.70;99.90;;;;;;4898217;29;20422;-89
2023/02/08 03:26:12;;;;;;;14.13;10.57;;;2.70;99.90;;;;;;4904236;29;20029;-90
2023/02/08 03:29:10;;;;;;;16.63;12.07;;;2.80;99.90;;;;;;4872295;29;20037;-90
2023/02/08 03:31:46;;;;;;;14.70;11.30;;;2.90;99.90;;;;;;4899714;29;20032;-89
2023/02/08 03:34:55;;;;;;;17.85;11.20;;;3.60;99.90;;;;;;4901488;29;20081;-91
2023/02/08 03:37:29;;;;;;;15.48;11.85;;;2.80;99.90;;;;;;4874224;29;20037;-91
2023/02/08 03:40:09;;;;;;;16.20;11.20;;;4.20;99.90;;;;;;4901740;29;20028;-90
2023/02/08 03:42:36;;;;;;;16.27;11.57;;;2.80;99.90;;;;;;4901443;29;20468;-89
2023/02/08 03:45:09;;;;;;;16.70;11.43;;;3.50;99.90;;;;;;4903842;29;20037;-91
2023/02/08 03:47:39;;;;;;;17.92;12.13;;;2.70;99.90;;;;;;4904609;29;20543;-91
2023/02/08 03:50:09;;;;;;;16.67;11.47;;;3.30;99.90;;;;;;4901463;29;20024;-90
2023/02/08 03:52:35;;;;;;;19.42;11.90;;;2.70;99.90;;;;;;4901611;29;20028;-90
2023/02/08 03:55:05;;;;;;;20.00;11.10;;;2.70;99.90;;;;;;4901235;29;20484;-89
2023/02/08 03:57:50;;;;;;;17.80;10.95;;;2.70;99.90;;;;;;4900928;29;20097;-90
2023/02/08 04:00:17;;;;;;;19.80;11.43;;;3.20;99.90;;;;;;4900331;29;20437;-91
2023/02/08 04:02:54;;;;;;;15.43;11.93;;;2.60;99.90;;;;;;4901272;29;20040;-91
2023/02/08 04:05:21;;;;;;;15.20;11.55;;;2.50;99.90;;;;;;4901315;29;20032;-90
2023/02/08 04:07:46;;;;;;;18.17;11.73;;;3.60;99.90;;;;;;4900833;29;20476;-89
2023/02/08 04:10:12;;;;;;;13.88;10.93;;;2.50;99.90;;;;;;4900938;29;20084;-90
2023/02/08 04:12:38;;;;;;;15.68;11.57;;;2.60;99.90;;;;;;4900904;29;20034;-92
2023/02/08 04:15:04;;;;;;;17.77;11.80;;;2.90;99.90;;;;;;4900745;29;20111;-90
2023/02/08 04:17:39;;;;;;;15.80;11.77;;;2.50;99.90;;;;;;4900655;29;20079;-89
2023/02/08 04:20:05;;;;;;;18.27;11.10;;;3.00;99.90;;;;;;4911901;29;20036;-90
2023/02/08 04:22:33;;;;;;;17.02;10.98;;;2.60;99.90;;;;;;4910340;29;20410;-90
2023/02/08 04:24:59;;;;;;;17.38;11.50;;;3.00;99.90;;;;;;4901667;29;20035;-88
2023/02/08 04:27:25;;;;;;;14.23;11.52;;;3.80;99.90;;;;;;4901066;29;20040;-91
2023/02/08 04:29:51;;;;;;;15.95;11.18;;;3.10;99.90;;;;;;4900760;29;20028;-90
2023/02/08 04:32:16;;;;;;;14.77;11.38;;;3.50;99.90;;;;;;4900106;29;20568;-90
2023/02/08 04:34:42;;;;;;;16.95;11.77;;;2.50;99.90;;;;;;4900955;29;20016;-90
2023/02/08 04:37:16;;;;;;;15.13;11.13;;;3.00;99.90;;;;;;4900060;29;20052;-90
2023/02/08 04:39:42;;;;;;;17.23;11.73;;;2.90;99.90;;;;;;4900709;29;20068;-90
2023/02/08 04:42:08;;;;;;;16.00;10.88;;;2.90;99.90;;;;;;4900096;29;20063;-90
2023/02/08 04:44:33;;;;;;;14.82;11.02;;;3.00;99.90;;;;;;4899709;29;20111;-88
2023/02/08 04:46:59;;;;;;;15.95;10.98;;;2.60;99.90;;;;;;4900218;29;20040;-89
2023/02/08 04:49:25;;;;;;;16.92;11.48;;;2.60;99.90;;;;;;4901168;29;20112;-89
2023/02/08 04:51:51;;;;;;;16.27;12.30;;;3.40;99.90;;;;;;4900097;29;20056;-90
2023/02/08 04:54:16;;;;;;;16.15;10.85;;;3.20;99.90;;;;;;4899547;29;20029;-90
2023/02/08 04:56:42;;;;;;;14.50;11.13;;;3.40;99.90;;;;;;4900156;29;20029;-88
2023/02/08 04:59:07;;;;;;;16.70;11.25;;;3.00;99.90;;;;;;4899610;29;20433;-91
2023/02/08 05:01:33;;;;;;;14.50;11.50;;;3.00;99.90;;;;;;4900523;29;20036;-91
2023/02/08 05:03:58;;;;;;;16.38;11.30;;;2.70;99.90;;;;;;4900213;29;20361;-89
2023/02/08 05:06:32;;;;;;;19.58;11.82;;;2.60;99.90;;;;;;4899915;29;20177;-91
2023/02/08 05:09:06;;;;;;;16.05;11.32;;;4.00;99.90;;;;;;4900014;29;20484;-88
2023/02/08 05:11:32;;;;;;;17.92;11.63;;;3.10;99.90;;;;;;4900243;29;20036;-89
2023/02/08 05:13:57;;;;;;;20.48;11.63;;;2.60;99.90;;;;;;4900574;29;20112;-88
2023/02/08 05:16:23;;;;;;;19.88;11.40;;;2.80;99.90;;;;;;4900338;29;20060;-90
2023/02/08 05:18:49;;;;;;;15.13;11.77;;;3.20;99.90;;;;;;4899938;29;20033;-91
2023/02/08 05:21:15;;;;;;;18.67;11.25;;;3.20;99.90;;;;;;4899499;29;20395;-92
2023/02/08 05:23:41;;;;;;;16.30;11.18;;;2.60;99.90;;;;;;4900171;29;20024;-88
2023/02/08 05:26:09;;;;;;;16.67;10.90;;;2.50;99.90;;;;;;4899545;29;20473;-88
2023/02/08 05:28:37;;;;;;;19.63;11.43;;;2.40;99.90;;;;;;4902370;29;20028;-89
2023/02/08 05:31:12;;;;;;;19.33;11.52;;;2.80;99.90;;;;;;4899598;29;20551;-89
2023/02/08 05:33:37;;;;;;;13.18;10.48;;;2.70;99.90;;;;;;4899685;29;20025;-92
2023/02/08 05:36:22;;;;;;;16.73;11.57;;;2.50;99.90;;;;;;4899381;29;20369;-90
2023/02/08 05:38:48;;;;;;;16.20;11.43;;;3.10;99.90;;;;;;4900133;29;20052;-90
2023/02/08 05:41:14;;;;;;;16.80;11.35;;;3.20;99.90;;;;;;4899159;29;20064;-91
2023/02/08 05:44:00;;;;;;;16.05;11.02;;;2.40;99.90;;;;;;4899651;29;20052;-89
2023/02/08 05:46:26;;;;;;;18.83;11.73;;;2.90;99.90;;;;;;4898861;29;20119;-90
2023/02/08 05:48:51;;;;;;;13.95;11.57;;;2.40;99.90;;;;;;4899386;29;20061;-91
2023/02/08 05:51:35;;;;;;;15.98;11.05;;;2.40;99.90;;;;;;4899151;29;20085;-89
2023/02/08 05:54:13;;;;;;;19.20;11.63;;;3.30;99.90;;;;;;4884130;29;20032;-91
2023/02/08 05:56:39;;;;;;;18.70;12.90;;;2.40;99.90;;;;;;4907183;29;20111;-90
2023/02/08 05:59:09;;;;;;;17.85;12.00;;;2.40;99.90;;;;;;4898621;29;20165;-90
2023/02/08 06:01:52;;;;;;;17.42;11.52;;;2.50;99.90;;;;;;4898963;29;20021;-90
2023/02/08 06:04:18;;;;;;;19.80;11.95;;;2.40;99.90;;;;;;4884604;29;20033;-91
2023/02/08 06:06:44;;;;;;;13.90;10.70;;;2.40;99.90;;;;;;4883156;29;20502;-90
2023/02/08 06:09:09;;;;;;;18.00;11.30;;;2.50;99.90;;;;;;4890767;29;20029;-92
2023/02/08 06:11:35;;;;;;;14.52;11.27;;;2.60;99.90;;;;;;4898833;29;20056;-92
2023/02/08 06:14:02;;;;;;;25.85;12.77;;;3.50;99.90;;;;;;4899202;29;20047;-92
2023/02/08 06:16:28;;;;;;;32.38;14.05;;;2.90;99.90;;;;;;4898405;29;20052;-91
2023/02/08 06:18:53;;;;;;;29.65;14.13;;;2.40;99.90;;;;;;4895597;29;20037;-91
2023/02/08 06:21:19;;;;;;;32.97;14.30;;;2.50;99.90;;;;;;4901036;29;20125;-91
2023/02/08 06:23:45;;;;;;;35.83;14.52;;;2.90;99.90;;;;;;4900332;29;20064;-92
2023/02/08 06:26:10;;;;;;;31.67;13.30;;;2.40;99.90;;;;;;4898895;29;20046;-92
2023/02/08 06:28:42;;;;;;;69.10;19.60;;;2.90;99.90;;;;;;4899115;29;20040;-91
2023/02/08 06:31:10;;;;;;;30.90;12.38;;;2.40;99.90;;;;;;4899077;29;20061;-89
2023/02/08 06:33:36;;;;;;;25.02;12.60;;;2.50;99.90;;;;;;4889914;29;20033;-91
2023/02/08 06:36:02;;;;;;;16.80;11.60;;;2.50;99.90;;;;;;4894896;29;20024;-90
2023/02/08 06:38:27;;;;;;;13.32;10.25;;;2.40;99.90;;;;;;4894565;29;20038;-90
2023/02/08 06:40:53;;;;;;;17.27;10.70;;;3.00;99.90;;;;;;4898298;29;20048;-90
2023/02/08 06:43:19;;;;;;;14.85;10.38;;;3.50;99.90;;;;;;4894202;29;20028;-90
2023/02/08 06:45:45;;;;;;;15.18;11.02;;;2.70;99.90;;;;;;4892911;29;20471;-90
2023/02/08 06:48:11;;;;;;;17.05;11.13;;;2.30;99.90;;;;;;4895960;29;20037;-90
2023/02/08 06:50:37;;;;;;;16.77;10.50;;;2.30;99.90;;;;;;4898241;29;20104;-90
2023/02/08 06:53:03;;;;;;;14.60;10.20;;;2.30;99.90;;;;;;4890029;29;20045;-89
2023/02/08 06:55:29;;;;;;;16.15;11.25;;;2.30;99.90;;;;;;4894319;29;20385;-90
2023/02/08 06:57:55;;;;;;;16.63;11.77;;;3.50;99.90;;;;;;4894477;29;20031;-91
2023/02/08 07:00:21;;;;;;;19.50;11.80;;;3.00;99.90;;;;;;4905881;29;20028;-88
2023/02/08 07:02:46;;;;;;;25.58;11.43;;;2.40;99.90;;;;;;4900146;29;20064;-90
2023/02/08 07:05:13;;;;;;;14.38;11.10;;;2.90;99.90;;;;;;4898528;29;20028;-90
2023/02/08 07:07:38;;;;;;;19.83;10.82;;;2.30;99.90;;;;;;4900615;29;20389;-91
2023/02/08 07:10:10;;;;;;;16.55;10.77;;;2.40;99.90;;;;;;4898815;29;20024;-91
2023/02/08 07:12:38;;;;;;;16.67;10.70;;;2.30;99.90;;;;;;4901605;29;20065;-91
2023/02/08 07:15:04;;;;;;;16.23;11.98;;;3.10;99.90;;;;;;4893587;29;20033;-90
2023/02/08 07:17:29;;;;;;;15.88;11.10;;;2.20;99.90;;;;;;4897676;29;20052;-90
2023/02/08 07:19:56;;;;;;;15.07;10.95;;;2.20;99.90;;;;;;4890281;29;20355;-91
2023/02/08 07:22:26;;;;;;;18.73;11.07;;;2.10;99.90;;;;;;4888933;29;20123;-89
2023/02/08 07:24:58;;;;;;;;;;;2.60;99.90;;;;;;4897797;29;20031;-90
2023/02/08 07:27:23;;;;;;;19.20;11.40;;;2.20;99.90;;;;;;4901280;29;19919;-89
2023/02/08 07:29:58;;;;;;;21.05;11.85;;;3.20;99.90;;;;;;4900959;29;20133;-88
2023/02/08 07:32:24;;;;;;;13.35;9.90;;;2.50;99.90;;;;;;4900510;29;20032;-89
2023/02/08 07:34:49;;;;;;;17.40;10.30;;;2.00;99.90;;;;;;4894016;29;20137;-89
2023/02/08 07:37:25;;;;;;;14.32;10.07;;;2.10;99.90;;;;;;4900588;29;20036;-91
2023/02/08 07:39:50;;;;;;;14.60;10.52;;;1.90;99.90;;;;;;4900870;29;20028;-90
2023/02/08 07:42:16;;;;;;;16.92;11.05;;;2.10;99.90;;;;;;4905032;29;20024;-89
2023/02/08 07:44:42;;;;;;;16.52;10.90;;;2.10;99.90;;;;;;4903785;29;20035;-89
2023/02/08 07:47:17;;;;;;;16.00;10.85;;;2.10;99.90;;;;;;4901530;29;20509;-90
2023/02/08 07:49:42;;;;;;;19.27;11.63;;;2.60;99.90;;;;;;4901957;29;20103;-89
2023/02/08 07:52:08;;;;;;;23.77;11.00;;;2.10;99.90;;;;;;4902967;29;20057;-90
2023/02/08 07:54:43;;;;;;;17.48;11.10;;;2.10;99.90;;;;;;4914713;29;20084;-90
2023/02/08 07:57:08;;;;;;;17.92;11.65;;;3.30;99.90;;;;;;4897685;29;20025;-90
2023/02/08 07:59:34;;;;;;;16.60;11.25;;;2.00;99.90;;;;;;4897999;29;20437;-88
2023/02/08 08:02:20;;;;;;;16.80;10.02;;;2.00;99.90;;;;;;4901216;29;20021;-90
2023/02/08 08:04:45;;;;;;;16.10;10.35;;;2.70;99.90;;;;;;4900789;29;20508;-88
2023/02/08 08:07:26;;;;;;;18.27;11.40;;;2.00;99.90;;;;;;4900240;29;20048;-91
2023/02/08 08:09:52;;;;;;;14.45;11.38;;;2.50;99.90;;;;;;4901228;29;20153;-90
2023/02/08 08:12:18;;;;;;;17.25;11.45;;;2.00;99.90;;;;;;4900951;29;20029;-92
2023/02/08 08:14:56;;;;;;;17.98;11.80;;;3.20;99.90;;;;;;4901215;29;20029;-91
2023/02/08 08:17:47;;;;;;;21.10;11.90;;;2.40;99.90;;;;;;4897978;29;20051;-91
2023/02/08 08:20:29;;;;;;;21.13;11.57;;;2.40;99.90;;;;;;4900984;29;20028;-90
2023/02/08 08:22:57;;;;;;;14.60;11.20;;;2.10;99.90;;;;;;4901552;29;20029;-89
2023/02/08 08:25:32;;;;;;;15.55;11.80;;;2.10;99.90;;;;;;4900535;29;20088;-89
2023/02/08 08:27:57;;;;;;;18.70;11.88;;;2.20;99.90;;;;;;4900371;29;20043;-89
2023/02/08 08:30:24;;;;;;;18.08;11.07;;;2.20;99.90;;;;;;4899921;29;20028;-88
2023/02/08 08:33:06;;;;;;;16.83;11.77;;;2.90;99.90;;;;;;4899496;29;20029;-89
2023/02/08 08:35:31;;;;;;;18.92;12.10;;;2.20;99.90;;;;;;4900802;29;20439;-92
2023/02/08 08:37:57;;;;;;;14.65;11.70;;;2.70;99.90;;;;;;4901096;29;20059;-90
2023/02/08 08:40:30;;;;;;;22.90;11.07;;;3.30;99.90;;;;;;4901530;29;20032;-89
2023/02/08 08:42:56;;;;;;;34.10;11.07;;;2.30;99.90;;;;;;4900848;29;20028;-91
2023/02/08 08:45:22;;;;;;;21.75;11.80;;;2.40;99.90;;;;;;4901011;29;20354;-91
2023/02/08 08:47:47;;;;;;;19.63;11.07;;;2.40;99.90;;;;;;4916049;29;20040;-88
2023/02/08 08:50:13;;;;;;;16.77;11.85;;;2.50;99.90;;;;;;4907246;29;20033;-89
2023/02/08 08:52:39;;;;;;;22.75;11.13;;;2.40;99.90;;;;;;4903220;29;20048;-91
2023/02/08 08:55:19;;;;;;;19.33;10.25;;;2.50;99.90;;;;;;4901575;29;20056;-91
2023/02/08 08:57:47;;;;;;;22.42;12.30;;;2.50;99.90;;;;;;4900571;29;20032;-92
2023/02/08 09:00:13;;;;;;;16.42;10.38;;;2.50;99.90;;;;;;4902255;29;20383;-90
2023/02/08 09:02:39;;;;;;;23.45;12.13;;;2.50;99.90;;;;;;4900746;29;20115;-91
2023/02/08 09:05:06;;;;;;;17.52;12.25;;;3.00;99.90;;;;;;4901555;29;20112;-87
2023/02/08 09:07:41;;;;;;;19.63;11.48;;;2.50;99.90;;;;;;4912247;29;20084;-92
2023/02/08 09:10:41;;;;;;;15.50;11.55;;;2.80;99.90;;;;;;4906659;29;20105;-96
2023/02/08 09:13:08;;;;;;;16.77;10.35;;;2.50;99.90;;;;;;4888477;29;20385;-88
2023/02/08 09:15:36;;;;;;;17.13;11.52;;;2.50;99.90;;;;;;4897295;29;20054;-93
2023/02/08 09:18:02;;;;;;;22.92;13.70;;;3.10;99.90;;;;;;4881386;29;20097;-92
2023/02/08 09:20:28;;;;;;;16.33;11.13;;;2.50;99.90;;;;;;4883008;29;20033;-89
2023/02/08 09:22:53;;;;;;;15.95;11.90;;;2.80;99.90;;;;;;4881400;29;20043;-89
2023/02/08 09:25:21;;;;;;;18.95;11.25;;;3.10;99.90;;;;;;4880637;29;20037;-92
2023/02/08 09:27:47;;;;;;;19.23;11.60;;;3.00;99.90;;;;;;4881526;29;20365;-92
2023/02/08 09:30:13;;;;;;;16.98;11.07;;;2.60;99.90;;;;;;4881388;29;20028;-89
2023/02/08 09:32:39;;;;;;;19.05;11.18;;;2.70;99.90;;;;;;4881675;29;20088;-92
2023/02/08 09:35:05;;;;;;;20.55;12.00;;;2.80;99.90;;;;;;4886158;29;20041;-95
2023/02/08 09:37:34;;;;;;;24.90;12.48;;;2.70;99.90;;;;;;4902539;29;20048;-91
2023/02/08 09:40:00;;;;;;;19.17;11.45;;;3.30;99.90;;;;;;4912821;29;20036;-93
2023/02/08 09:43:15;;;;;;;17.63;11.45;;;2.90;99.90;;;;;;4913993;29;20032;-94
2023/02/08 09:45:50;;;;;;;16.25;11.55;;;2.90;99.90;;;;;;4896262;29;20032;-95
2023/02/08 09:48:27;;;;;;;17.35;12.05;;;2.90;99.90;;;;;;4921563;29;20518;-90
2023/02/08 09:51:18;;;;;;;16.27;11.20;;;3.00;99.90;;;;;;4904325;29;20040;-91
2023/02/08 09:53:49;;;;;;;20.40;11.55;;;3.70;99.90;;;;;;4892507;29;20099;-93
2023/02/08 09:56:22;;;;;;;19.45;11.52;;;3.00;99.90;;;;;;4899262;29;20485;-93
2023/02/08 09:58:51;;;;;;;18.67;11.32;;;3.80;99.90;;;;;;4900109;29;20063;-92
2023/02/08 10:01:22;;;;;;;20.58;11.27;;;3.70;99.90;;;;;;4900229;29;20029;-91
2023/02/08 10:03:50;;;;;;;17.02;11.75;;;3.20;99.90;;;;;;4900008;29;20028;-90
2023/02/08 10:06:18;;;;;;;15.40;11.35;;;3.00;99.90;;;;;;4899232;29;20032;-91
2023/02/08 10:08:47;;;;;;;16.83;11.18;;;4.00;99.90;;;;;;4899599;29;20033;-90
2023/02/08 10:14:46;;;;;;;21.60;12.18;;;3.30;99.90;;;;;;4871943;29;20155;-92
2023/02/08 10:17:48;;;;;;;15.98;10.77;;;3.40;99.90;;;;;;4919346;23;20143;-91
2023/02/08 10:20:20;;;;;;;17.63;11.88;;;3.40;99.90;;;;;;4896626;29;20033;-93
2023/02/08 10:22:52;;;;;;;22.17;12.10;;;3.40;99.90;;;;;;4897385;29;20032;-93
2023/02/08 10:25:49;;;;;;;22.25;11.90;;;4.60;99.90;;;;;;4899517;29;20032;-93
2023/02/08 10:28:52;;;;;;;22.75;11.50;;;3.50;99.90;;;;;;4887106;29;20045;-92
2023/02/08 10:31:59;;;;;;;17.50;11.25;;;3.60;99.90;;;;;;4900315;29;20032;-90
2023/02/08 10:34:43;;;;;;;25.27;10.60;;;3.50;99.90;;;;;;4890855;29;20041;-91
2023/02/08 10:37:28;;;;;;;25.98;11.63;;;3.40;99.90;;;;;;4904028;29;20111;-92
2023/02/08 10:39:55;;;;;;;15.88;11.77;;;3.60;99.90;;;;;;4892896;29;20031;-89
2023/02/08 10:42:26;;;;;;;19.38;10.73;;;3.70;99.90;;;;;;4894741;29;20096;-93
2023/02/08 10:45:07;;;;;;;;;;;5.10;99.90;;;;;;4922025;23;20147;-91
2023/02/08 10:47:44;;;;;;;17.05;9.73;;;3.80;99.60;;;;;;4896822;29;20427;-90
2023/02/08 10:50:39;;;;;;;17.52;11.10;;;3.50;99.40;;;;;;4885665;29;20037;-90
2023/02/08 10:53:05;;;;;;;14.15;10.48;;;3.90;99.70;;;;;;4887168;29;20032;-89
2023/02/08 10:55:33;;;;;;;14.70;9.30;;;3.90;99.10;;;;;;4896159;29;20108;-91
2023/02/08 10:58:03;;;;;;;16.63;8.73;;;4.00;98.70;;;;;;4887360;29;20527;-92
2023/02/08 11:00:39;;;;;;;14.95;8.90;;;4.60;98.60;;;;;;4896501;29;20036;-93
2023/02/08 11:03:28;;;;;;;18.90;10.07;;;4.50;98.50;;;;;;4896456;29;20037;-93
2023/02/08 11:05:54;;;;;;;20.60;10.02;;;4.10;98.30;;;;;;4889674;29;20059;-92
2023/02/08 11:09:08;;;;;;;14.68;8.48;;;5.40;98.00;;;;;;4898847;29;20123;-92
2023/02/08 11:11:36;;;;;;;18.02;8.73;;;3.90;97.80;;;;;;4894881;29;20385;-89
2023/02/08 11:14:14;;;;;;;14.73;8.75;;;4.20;97.90;;;;;;4894386;29;20029;-91
2023/02/08 11:16:48;;;;;;;15.35;8.40;;;4.70;97.90;;;;;;4895747;29;20029;-93
2023/02/08 11:19:22;;;;;;;14.35;9.43;;;4.30;97.80;;;;;;4898087;29;20032;-93
2023/02/08 11:21:50;;;;;;;16.13;9.50;;;4.80;97.70;;;;;;4898089;29;20099;-91
2023/02/08 11:24:38;;;;;;;12.65;8.30;;;5.30;97.40;;;;;;4891962;29;20117;-88
2023/02/08 11:27:28;;;;;;;32.15;10.30;;;4.30;97.20;;;;;;4899737;29;20043;-88
2023/02/08 11:30:12;;;;;;;11.30;8.40;;;4.40;96.40;;;;;;4899233;29;20103;-90
2023/02/08 11:32:38;;;;;;;13.70;9.10;;;4.40;96.60;;;;;;4896495;29;20036;-90
2023/02/08 11:35:33;;;;;;;11.00;8.55;;;4.50;96.60;;;;;;4889113;29;20036;-87
2023/02/08 11:37:59;;;;;;;10.98;8.80;;;4.10;96.60;;;;;;4885434;29;20825;-87
2023/02/08 11:40:33;;;;;;;13.55;8.02;;;5.70;96.30;;;;;;4891985;29;20029;-89
2023/02/08 11:43:03;;;;;;;13.98;9.13;;;4.60;96.20;;;;;;4889264;29;20063;-89
2023/02/08 11:45:45;;;;;;;10.65;8.10;;;5.50;96.70;;;;;;4897481;29;20049;-88
2023/02/08 11:48:43;;;;;;;12.93;9.23;;;5.50;96.30;;;;;;4897120;29;20047;-89
2023/02/08 11:51:36;;;;;;;14.65;9.18;;;4.70;96.10;;;;;;4892633;29;20024;-90
2023/02/08 11:54:04;;;;;;;9.88;8.20;;;5.80;96.90;;;;;;4903245;29;20511;-92
2023/02/08 11:56:34;;;;;;;14.63;9.50;;;4.70;96.40;;;;;;4902395;29;20035;-92
2023/02/08 11:59:04;;;;;;;12.35;9.18;;;5.20;96.40;;;;;;4902889;29;20166;-92
2023/02/08 12:01:34;;;;;;;;;;;4.80;96.50;;;;;;4902021;29;20108;-91
2023/02/08 12:04:03;;;;;;;12.85;8.85;;;5.20;96.70;;;;;;4902140;29;19934;-90
2023/02/08 12:06:47;;;;;;;13.57;9.90;;;5.20;96.50;;;;;;4901702;29;20031;-91
2023/02/08 12:12:32;;;;;;;13.43;8.25;;;5.00;96.50;;;;;;4902387;29;20457;-92
2023/02/08 12:15:16;;;;;;;14.75;9.30;;;5.00;96.30;;;;;;4891883;29;20047;-90
2023/02/08 12:18:14;;;;;;;14.63;9.02;;;5.10;96.40;;;;;;4902501;29;20048;-91
2023/02/08 12:23:32;;;;;;;11.10;8.45;;;5.10;96.60;;;;;;5026234;23;20053;-93
2023/02/08 12:26:09;;;;;;;11.93;8.45;;;5.70;96.40;;;;;;4901557;29;20037;-91
2023/02/08 12:29:01;;;;;;;19.45;9.00;;;5.20;96.70;;;;;;4903134;29;20039;-90
2023/02/08 12:31:59;;;;;;;14.23;9.27;;;4.90;96.40;;;;;;4890926;29;20029;-91
2023/02/08 12:35:02;;;;;;;12.32;8.85;;;5.30;95.90;;;;;;4962385;23;20057;-94
2023/02/08 12:41:43;;;;;;;12.50;8.45;;;5.40;95.70;;;;;;4848977;29;20127;-92
2023/02/08 12:47:13;;;;;;;14.00;8.05;;;5.20;94.40;;;;;;4921654;29;20088;-94
2023/02/08 12:49:49;;;;;;;10.95;8.80;;;5.50;94.60;;;;;;4933706;23;20056;-93
2023/02/08 12:52:56;;;;;;;10.70;7.78;;;5.60;94.50;;;;;;4902486;29;20111;-94
2023/02/08 12:55:41;;;;;;;13.43;7.95;;;5.60;94.90;;;;;;4808808;29;20067;-95
2023/02/08 12:58:42;;;;;;;10.63;8.18;;;6.20;94.70;;;;;;4809255;29;20038;-94
2023/02/08 13:01:34;;;;;;;15.27;8.60;;;5.70;94.30;;;;;;4824530;23;20041;-94
2023/02/08 13:04:19;;;;;;;10.77;8.13;;;6.20;94.50;;;;;;4901878;29;20036;-94
2023/02/08 13:07:08;;;;;;;15.07;8.75;;;5.00;94.30;;;;;;4901910;29;20677;-89
2023/02/08 13:09:52;;;;;;;8.60;7.43;;;6.70;94.60;;;;;;4857347;29;20064;-93
2023/02/08 13:12:37;;;;;;;10.75;7.88;;;5.90;93.80;;;;;;4920045;29;20016;-93
2023/02/08 13:15:26;;;;;;;17.15;8.85;;;5.90;94.00;;;;;;4917787;29;20481;-93
2023/02/08 13:18:19;;;;;;;17.83;8.82;;;6.20;94.30;;;;;;4902448;29;20485;-93
2023/02/08 13:21:07;;;;;;;11.45;8.32;;;6.10;94.30;;;;;;4902113;29;20060;-93
2023/02/08 13:23:47;;;;;;;14.80;8.77;;;6.10;94.10;;;;;;4901856;29;20072;-94
2023/02/08 13:26:30;;;;;;;8.93;7.65;;;6.60;93.80;;;;;;4901646;29;20477;-92
2023/02/08 13:29:04;;;;;;;9.25;8.27;;;7.20;93.90;;;;;;4902425;29;20174;-92
2023/02/08 13:31:56;;;;;;;13.20;7.90;;;6.30;93.60;;;;;;4907267;29;20009;-89
2023/02/08 13:35:01;;;;;;;15.48;8.60;;;6.30;93.00;;;;;;4897961;29;20039;-89
2023/02/08 13:37:30;;;;;;;12.48;7.93;;;6.40;93.20;;;;;;4902576;29;20021;-91
2023/02/08 13:40:26;;;;;;;12.13;8.35;;;6.80;93.30;;;;;;4902069;29;20020;-93
2023/02/08 13:45:38;;;;;;;13.00;8.05;;;6.50;93.30;;;;;;4904159;23;20104;-92
2023/02/08 13:48:10;;;;;;;10.05;8.73;;;6.20;93.50;;;;;;4899309;29;20573;-93
2023/02/08 13:50:51;;;;;;;11.82;8.45;;;7.00;93.90;;;;;;4912785;29;20615;-92
2023/02/08 13:53:39;;;;;;;12.18;8.95;;;6.60;94.10;;;;;;4907816;29;20029;-89
2023/02/08 13:58:48;;;;;;;14.48;8.13;;;6.70;93.20;;;;;;4906660;23;20521;-94
2023/02/08 14:01:34;;;;;;;14.82;9.23;;;7.20;93.50;;;;;;4909542;29;20100;-93
2023/02/08 14:04:12;;;;;;;16.25;8.65;;;7.10;93.40;;;;;;4904371;23;20037;-94
2023/02/08 14:06:40;;;;;;;14.68;8.13;;;7.10;93.10;;;;;;4917292;29;20040;-92
2023/02/08 14:09:20;;;;;;;11.90;8.07;;;7.30;93.00;;;;;;4906345;29;20043;-92
2023/02/08 14:12:05;;;;;;;16.83;9.07;;;6.80;93.00;;;;;;4902750;29;20509;-94
2023/02/08 14:15:13;;;;;;;17.40;8.95;;;7.30;93.00;;;;;;4900570;29;20024;-92
2023/02/08 14:17:56;;;;;;;23.23;9.15;;;6.90;92.70;;;;;;4807895;29;20031;-95
2023/02/08 14:20:37;;;;;;;19.67;10.15;;;7.00;92.80;;;;;;4895474;29;20041;-93
2023/02/08 14:23:36;;;;;;;23.60;9.40;;;7.00;93.00;;;;;;4900464;29;20477;-93
2023/02/08 14:26:09;;;;;;;14.43;8.43;;;7.10;92.90;;;;;;4901406;29;20033;-93
2023/02/08 14:28:44;;;;;;;11.32;8.60;;;7.40;92.40;;;;;;4901302;29;20064;-94
2023/02/08 14:31:13;;;;;;;13.88;9.13;;;7.20;92.80;;;;;;4901080;29;20029;-93
2023/02/08 14:33:55;;;;;;;13.40;8.80;;;7.50;92.80;;;;;;4901298;29;20376;-93
2023/02/08 14:36:34;;;;;;;13.55;8.52;;;7.50;92.50;;;;;;4901815;29;20037;-94
2023/02/08 14:39:29;;;;;;;17.48;9.52;;;7.60;92.50;;;;;;4903860;29;20425;-93
2023/02/08 14:42:00;;;;;;;11.90;8.65;;;7.30;92.50;;;;;;4906580;29;20032;-94
2023/02/08 14:44:37;;;;;;;12.95;9.73;;;7.30;93.00;;;;;;4912388;29;20057;-95
2023/02/08 14:47:29;;;;;;;11.82;8.65;;;7.40;92.00;;;;;;4908197;29;20123;-94